createdAt,value
2023-01-28T00:00:03.207Z,5
2023-01-28T00:01:02.797Z,5
2023-01-28T00:02:03.009Z,5
2023-01-28T00:03:03.368Z,5
2023-01-28T00:04:02.891Z,5
2023-01-28T00:05:03.332Z,5
2023-01-28T00:06:02.895Z,5
2023-01-28T00:07:03.300Z,5
2023-01-28T00:08:03.205Z,5
2023-01-28T00:09:02.832Z,5
2023-01-28T00:10:03.075Z,5
2023-01-28T00:11:03.395Z,5
2023-01-28T00:12:02.598Z,5
2023-01-28T00:13:02.240Z,5
2023-01-28T00:14:02.462Z,5
2023-01-28T00:15:02.381Z,5
2023-01-28T00:16:02.142Z,5
2023-01-28T00:17:02.981Z,5
2023-01-28T00:18:03.225Z,4
2023-01-28T00:19:02.996Z,4
2023-01-28T00:20:02.892Z,5
2023-01-28T00:21:02.687Z,5
2023-01-28T00:22:02.839Z,5
2023-01-28T00:23:02.352Z,4
2023-01-28T00:24:02.489Z,5
2023-01-28T00:25:02.858Z,4
2023-01-28T00:26:02.436Z,5
2023-01-28T00:27:01.922Z,4
2023-01-28T00:28:02.358Z,5
2023-01-28T00:29:02.078Z,5
2023-01-28T00:30:01.881Z,5
2023-01-28T00:31:02.392Z,5
2023-01-28T00:32:02.740Z,5
2023-01-28T00:33:02.198Z,5
2023-01-28T00:34:02.555Z,5
2023-01-28T00:35:02.381Z,5
2023-01-28T00:36:02.766Z,5
2023-01-28T00:37:02.851Z,5
2023-01-28T00:38:02.913Z,4
2023-01-28T00:39:02.320Z,5
2023-01-28T00:40:02.869Z,5
2023-01-28T00:41:02.886Z,5
2023-01-28T00:42:02.370Z,5
2023-01-28T00:43:02.815Z,5
2023-01-28T00:44:02.517Z,5
2023-01-28T00:45:02.894Z,5
2023-01-28T00:46:02.617Z,5
2023-01-28T00:47:02.360Z,5
2023-01-28T00:48:02.448Z,5
2023-01-28T00:49:02.735Z,5
2023-01-28T00:50:02.620Z,5
2023-01-28T00:51:03.075Z,5
2023-01-28T00:52:02.557Z,5
2023-01-28T00:53:02.862Z,5
2023-01-28T00:54:02.621Z,5
2023-01-28T00:55:02.981Z,5
2023-01-28T00:56:02.614Z,5
2023-01-28T00:57:02.103Z,5
2023-01-28T00:58:02.417Z,5
2023-01-28T00:59:02.034Z,5
2023-01-28T01:00:02.301Z,5
2023-01-28T01:01:02.049Z,4
2023-01-28T01:02:03.021Z,5
2023-01-28T01:03:02.550Z,5
2023-01-28T01:04:03.274Z,5
2023-01-28T01:05:02.611Z,5
2023-01-28T01:06:02.981Z,4
2023-01-28T01:07:02.511Z,4
2023-01-28T01:08:02.810Z,5
2023-01-28T01:09:02.443Z,4
2023-01-28T01:10:02.871Z,5
2023-01-28T01:11:02.663Z,5
2023-01-28T01:12:02.074Z,5
2023-01-28T01:13:02.491Z,4
2023-01-28T01:14:02.147Z,4
2023-01-28T01:15:02.684Z,5
2023-01-28T01:16:02.481Z,5
2023-01-28T01:17:02.250Z,4
2023-01-28T01:18:02.639Z,4
2023-01-28T01:19:02.252Z,4
2023-01-28T01:20:02.656Z,5
2023-01-28T01:21:02.579Z,5
2023-01-28T01:22:02.301Z,4
2023-01-28T01:23:02.645Z,5
2023-01-28T01:24:02.369Z,5
2023-01-28T01:25:02.748Z,5
2023-01-28T01:26:02.357Z,4
2023-01-28T01:27:02.721Z,5
2023-01-28T01:28:03.076Z,5
2023-01-28T01:29:02.703Z,5
2023-01-28T01:30:02.681Z,5
2023-01-28T01:31:03.146Z,5
2023-01-28T01:32:03.364Z,5
2023-01-28T01:33:03.098Z,4
2023-01-28T01:34:02.837Z,4
2023-01-28T01:35:03.259Z,4
2023-01-28T01:36:02.974Z,5
2023-01-28T01:37:02.454Z,5
2023-01-28T01:38:02.765Z,4
2023-01-28T01:39:02.400Z,5
2023-01-28T01:40:02.715Z,5
2023-01-28T01:41:02.366Z,5
2023-01-28T01:42:03.114Z,5
2023-01-28T01:43:02.838Z,5
2023-01-28T01:44:03.254Z,5
2023-01-28T01:45:02.754Z,5
2023-01-28T01:46:03.094Z,5
2023-01-28T01:47:02.793Z,5
2023-01-28T01:48:03.211Z,5
2023-01-28T01:49:03.261Z,5
2023-01-28T01:50:02.744Z,5
2023-01-28T01:51:03.152Z,5
2023-01-28T01:52:02.871Z,5
2023-01-28T01:53:03.181Z,5
2023-01-28T01:54:03.162Z,5
2023-01-28T01:55:02.707Z,5
2023-01-28T01:56:03.325Z,5
2023-01-28T01:57:02.594Z,5
2023-01-28T01:58:02.941Z,5
2023-01-28T01:59:02.494Z,5
2023-01-28T02:00:02.890Z,5
2023-01-28T02:01:02.886Z,5
2023-01-28T02:02:02.590Z,5
2023-01-28T02:03:03.068Z,5
2023-01-28T02:04:02.519Z,5
2023-01-28T02:05:02.965Z,5
2023-01-28T02:06:02.464Z,5
2023-01-28T02:07:02.037Z,5
2023-01-28T02:08:01.797Z,5
2023-01-28T02:09:02.183Z,5
2023-01-28T02:10:01.828Z,5
2023-01-28T02:11:01.666Z,5
2023-01-28T02:12:02.521Z,5
2023-01-28T02:13:02.867Z,5
2023-01-28T02:14:02.321Z,5
2023-01-28T02:15:02.648Z,5
2023-01-28T02:16:02.362Z,5
2023-01-28T02:17:02.705Z,5
2023-01-28T02:18:02.582Z,5
2023-01-28T02:19:03.079Z,5
2023-01-28T02:20:02.498Z,5
2023-01-28T02:21:02.941Z,5
2023-01-28T02:22:02.149Z,5
2023-01-28T02:23:02.708Z,5
2023-01-28T02:24:02.259Z,5
2023-01-28T02:25:02.551Z,5
2023-01-28T02:26:02.196Z,5
2023-01-28T02:27:02.563Z,5
2023-01-28T02:28:02.558Z,5
2023-01-28T02:29:02.362Z,5
2023-01-28T02:30:02.815Z,4
2023-01-28T02:31:02.394Z,5
2023-01-28T02:32:02.716Z,5
2023-01-28T02:33:02.985Z,4
2023-01-28T02:34:02.682Z,5
2023-01-28T02:35:02.841Z,4
2023-01-28T02:36:02.656Z,4
2023-01-28T02:37:02.113Z,4
2023-01-28T02:38:02.060Z,4
2023-01-28T02:39:01.886Z,4
2023-01-28T02:40:01.756Z,4
2023-01-28T02:41:02.317Z,4
2023-01-28T02:42:02.496Z,4
2023-01-28T02:43:02.165Z,4
2023-01-28T02:44:02.543Z,4
2023-01-28T02:45:02.213Z,5
2023-01-28T02:46:02.307Z,5
2023-01-28T02:47:02.448Z,4
2023-01-28T02:48:02.970Z,5
2023-01-28T02:49:02.683Z,5
2023-01-28T02:50:02.454Z,5
2023-01-28T02:51:02.824Z,4
2023-01-28T02:52:02.270Z,5
2023-01-28T02:53:02.442Z,4
2023-01-28T02:54:01.818Z,4
2023-01-28T02:55:02.191Z,5
2023-01-28T02:56:02.332Z,4
2023-01-28T02:57:02.647Z,4
2023-01-28T02:58:02.306Z,4
2023-01-28T02:59:02.635Z,5
2023-01-28T03:00:02.259Z,5
2023-01-28T03:01:02.669Z,5
2023-01-28T03:02:03.069Z,5
2023-01-28T03:03:03.034Z,5
2023-01-28T03:04:03.292Z,4
2023-01-28T03:05:02.656Z,5
2023-01-28T03:06:03.100Z,4
2023-01-28T03:07:02.135Z,5
2023-01-28T03:08:02.248Z,5
2023-01-28T03:09:02.622Z,5
2023-01-28T03:10:02.161Z,5
2023-01-28T03:11:02.509Z,5
2023-01-28T03:12:02.815Z,5
2023-01-28T03:13:02.498Z,5
2023-01-28T03:14:02.834Z,5
2023-01-28T03:15:02.491Z,5
2023-01-28T03:16:02.753Z,5
2023-01-28T03:17:03.174Z,5
2023-01-28T03:18:02.822Z,5
2023-01-28T03:19:03.232Z,5
2023-01-28T03:20:02.883Z,5
2023-01-28T03:21:02.884Z,5
2023-01-28T03:22:02.936Z,5
2023-01-28T03:23:03.164Z,5
2023-01-28T03:24:02.977Z,5
2023-01-28T03:25:02.861Z,5
2023-01-28T03:26:03.243Z,5
2023-01-28T03:27:02.661Z,5
2023-01-28T03:28:02.327Z,5
2023-01-28T03:29:02.654Z,5
2023-01-28T03:30:02.308Z,5
2023-01-28T03:31:02.674Z,6
2023-01-28T03:32:02.948Z,5
2023-01-28T03:33:03.208Z,5
2023-01-28T03:34:03.284Z,5
2023-01-28T03:35:02.679Z,6
2023-01-28T03:36:03.079Z,5
2023-01-28T03:37:01.900Z,6
2023-01-28T03:38:02.400Z,5
2023-01-28T03:39:02.129Z,5
2023-01-28T03:40:01.861Z,6
2023-01-28T03:41:02.198Z,6
2023-01-28T03:42:02.523Z,5
2023-01-28T03:43:02.201Z,5
2023-01-28T03:44:02.474Z,5
2023-01-28T03:45:02.349Z,6
2023-01-28T03:46:02.739Z,5
2023-01-28T03:47:02.724Z,5
2023-01-28T03:48:02.565Z,5
2023-01-28T03:49:02.299Z,6
2023-01-28T03:50:02.956Z,5
2023-01-28T03:51:02.461Z,6
2023-01-28T03:52:02.152Z,6
2023-01-28T03:53:02.465Z,6
2023-01-28T03:54:02.208Z,6
2023-01-28T03:55:02.052Z,6
2023-01-28T03:56:02.293Z,6
2023-01-28T03:57:02.618Z,5
2023-01-28T03:58:02.088Z,6
2023-01-28T03:59:02.469Z,6
2023-01-28T04:00:02.179Z,6
2023-01-28T04:01:02.165Z,6
2023-01-28T04:02:02.580Z,6
2023-01-28T04:03:03.002Z,6
2023-01-28T04:04:02.670Z,5
2023-01-28T04:05:03.272Z,5
2023-01-28T04:06:02.675Z,5
2023-01-28T04:07:02.595Z,6
2023-01-28T04:08:02.167Z,6
2023-01-28T04:09:02.372Z,6
2023-01-28T04:10:02.600Z,6
2023-01-28T04:11:02.133Z,6
2023-01-28T04:12:03.016Z,6
2023-01-28T04:13:02.656Z,6
2023-01-28T04:14:02.964Z,6
2023-01-28T04:15:02.866Z,6
2023-01-28T04:16:02.581Z,6
2023-01-28T04:17:01.895Z,6
2023-01-28T04:18:02.228Z,6
2023-01-28T04:19:01.950Z,6
2023-01-28T04:20:02.004Z,6
2023-01-28T04:21:02.391Z,6
2023-01-28T04:22:02.198Z,6
2023-01-28T04:23:02.551Z,6
2023-01-28T04:24:02.562Z,6
2023-01-28T04:25:02.584Z,6
2023-01-28T04:26:02.309Z,6
2023-01-28T04:27:02.567Z,6
2023-01-28T04:28:02.897Z,6
2023-01-28T04:29:02.824Z,6
2023-01-28T04:30:03.100Z,6
2023-01-28T04:31:03.066Z,6
2023-01-28T04:32:02.342Z,7
2023-01-28T04:33:02.741Z,6
2023-01-28T04:34:02.670Z,6
2023-01-28T04:35:02.331Z,7
2023-01-28T04:36:02.621Z,7
2023-01-28T04:37:02.314Z,6
2023-01-28T04:38:02.222Z,6
2023-01-28T04:39:02.719Z,7
2023-01-28T04:40:02.137Z,7
2023-01-28T04:41:02.466Z,6
2023-01-28T04:42:01.868Z,7
2023-01-28T04:43:02.213Z,7
2023-01-28T04:44:02.262Z,7
2023-01-28T04:45:01.832Z,7
2023-01-28T04:46:02.092Z,7
2023-01-28T04:47:02.566Z,7
2023-01-28T04:48:02.780Z,7
2023-01-28T04:49:02.643Z,8
2023-01-28T04:50:02.346Z,7
2023-01-28T04:51:02.712Z,7
2023-01-28T04:52:02.078Z,7
2023-01-28T04:53:02.462Z,7
2023-01-28T04:54:02.350Z,8
2023-01-28T04:55:02.089Z,8
2023-01-28T04:56:02.408Z,7
2023-01-28T04:57:02.598Z,8
2023-01-28T04:58:02.845Z,8
2023-01-28T04:59:02.307Z,8
2023-01-28T05:00:02.576Z,8
2023-01-28T05:01:02.449Z,7
2023-01-28T05:02:02.916Z,8
2023-01-28T05:03:02.852Z,7
2023-01-28T05:04:02.615Z,8
2023-01-28T05:05:03.050Z,7
2023-01-28T05:06:02.796Z,8
2023-01-28T05:07:03.148Z,7
2023-01-28T05:08:03.011Z,8
2023-01-28T05:09:03.482Z,8
2023-01-28T05:10:02.935Z,7
2023-01-28T05:11:03.383Z,8
2023-01-28T05:12:02.815Z,8
2023-01-28T05:13:02.645Z,7
2023-01-28T05:14:03.039Z,8
2023-01-28T05:16:02.935Z,8
2023-01-28T05:17:03.458Z,7
2023-01-28T05:18:03.539Z,8
2023-01-28T05:19:03.262Z,7
2023-01-28T05:20:05.151Z,7
2023-01-28T05:21:05.106Z,8
2023-01-28T05:22:04.188Z,8
2023-01-28T05:23:04.102Z,8
2023-01-28T05:24:04.061Z,7
2023-01-28T05:25:04.011Z,8
2023-01-28T05:26:03.962Z,7
2023-01-28T05:27:04.582Z,8
2023-01-28T05:28:04.667Z,8
2023-01-28T05:29:04.561Z,7
2023-01-28T05:30:04.494Z,7
2023-01-28T05:31:04.418Z,7
2023-01-28T05:32:04.067Z,7
2023-01-28T05:33:04.015Z,8
2023-01-28T05:34:04.282Z,7
2023-01-28T05:35:04.247Z,8
2023-01-28T05:36:04.226Z,8
2023-01-28T05:37:04.175Z,8
2023-01-28T05:38:02.851Z,8
2023-01-28T05:39:02.667Z,8
2023-01-28T05:40:02.338Z,8
2023-01-28T05:41:04.156Z,8
2023-01-28T05:42:04.784Z,8
2023-01-28T05:43:04.848Z,9
2023-01-28T05:44:04.826Z,8
2023-01-28T05:45:04.790Z,8
2023-01-28T05:46:04.710Z,8
2023-01-28T05:47:04.326Z,8
2023-01-28T05:48:04.528Z,8
2023-01-28T05:49:03.794Z,8
2023-01-28T05:50:03.983Z,8
2023-01-28T05:51:04.251Z,9
2023-01-28T05:52:04.900Z,8
2023-01-28T05:53:04.401Z,9
2023-01-28T05:54:05.030Z,8
2023-01-28T05:55:04.536Z,9
2023-01-28T05:56:04.387Z,8
2023-01-28T05:57:04.440Z,9
2023-01-28T05:58:04.617Z,8
2023-01-28T05:59:03.886Z,9
2023-01-28T06:00:04.128Z,9
2023-01-28T06:01:04.199Z,9
2023-01-28T06:02:04.901Z,9
2023-01-28T06:03:04.916Z,9
2023-01-28T06:04:04.917Z,9
2023-01-28T06:05:04.962Z,8
2023-01-28T06:06:04.282Z,9
2023-01-28T06:07:04.485Z,8
2023-01-28T06:08:04.021Z,8
2023-01-28T06:09:04.384Z,9
2023-01-28T06:10:04.384Z,9
2023-01-28T06:11:03.968Z,9
2023-01-28T06:12:04.579Z,9
2023-01-28T06:13:04.577Z,9
2023-01-28T06:14:04.529Z,9
2023-01-28T06:15:04.509Z,9
2023-01-28T06:16:04.324Z,9
2023-01-28T06:17:03.368Z,9
2023-01-28T06:18:04.047Z,9
2023-01-28T06:19:03.357Z,9
2023-01-28T06:20:03.569Z,9
2023-01-28T06:21:03.532Z,10
2023-01-28T06:22:02.102Z,10
2023-01-28T06:23:02.205Z,9
2023-01-28T06:24:02.629Z,10
2023-01-28T06:25:02.708Z,9
2023-01-28T06:26:02.722Z,10
2023-01-28T06:27:02.239Z,10
2023-01-28T06:28:02.642Z,10
2023-01-28T06:29:02.292Z,10
2023-01-28T06:30:02.674Z,9
2023-01-28T06:31:02.354Z,10
2023-01-28T06:32:01.966Z,10
2023-01-28T06:33:02.071Z,9
2023-01-28T06:34:02.428Z,9
2023-01-28T06:35:01.896Z,10
2023-01-28T06:36:02.289Z,9
2023-01-28T06:37:02.471Z,9
2023-01-28T06:38:02.132Z,9
2023-01-28T06:39:02.191Z,10
2023-01-28T06:40:01.886Z,9
2023-01-28T06:41:02.194Z,9
2023-01-28T06:42:02.562Z,10
2023-01-28T06:43:02.977Z,10
2023-01-28T06:44:02.690Z,10
2023-01-28T06:45:03.058Z,9
2023-01-28T06:46:02.937Z,10
2023-01-28T06:47:01.784Z,9
2023-01-28T06:48:03.045Z,10
2023-01-28T06:49:01.665Z,10
2023-01-28T06:50:02.089Z,10
2023-01-28T06:51:01.848Z,10
2023-01-28T06:52:02.320Z,9
2023-01-28T06:53:02.504Z,9
2023-01-28T06:54:02.249Z,9
2023-01-28T06:55:02.615Z,9
2023-01-28T06:56:02.352Z,10
2023-01-28T06:57:01.602Z,10
2023-01-28T06:58:01.712Z,9
2023-01-28T06:59:01.836Z,10
2023-01-28T07:00:01.640Z,10
2023-01-28T07:01:02.206Z,9
2023-01-28T07:02:02.478Z,10
2023-01-28T07:03:02.442Z,9
2023-01-28T07:04:02.255Z,10
2023-01-28T07:05:02.750Z,10
2023-01-28T07:06:02.479Z,9
2023-01-28T07:07:02.005Z,9
2023-01-28T07:08:01.709Z,10
2023-01-28T07:09:02.174Z,10
2023-01-28T07:10:01.973Z,9
2023-01-28T07:11:01.726Z,10
2023-01-28T07:12:02.199Z,10
2023-01-28T07:13:01.955Z,10
2023-01-28T07:14:02.450Z,10
2023-01-28T07:15:02.231Z,10
2023-01-28T07:16:02.053Z,10
2023-01-28T07:17:02.588Z,10
2023-01-28T07:18:03.118Z,10
2023-01-28T07:19:02.737Z,10
2023-01-28T07:20:02.547Z,10
2023-01-28T07:21:02.355Z,10
2023-01-28T07:22:01.910Z,9
2023-01-28T07:23:01.711Z,10
2023-01-28T07:24:02.211Z,9
2023-01-28T07:25:01.800Z,10
2023-01-28T07:26:02.113Z,10
2023-01-28T07:27:02.284Z,9
2023-01-28T07:28:02.093Z,10
2023-01-28T07:29:02.552Z,9
2023-01-28T07:30:02.472Z,10
2023-01-28T07:31:02.040Z,9
2023-01-28T07:32:01.694Z,9
2023-01-28T07:33:01.493Z,9
2023-01-28T07:34:01.425Z,9
2023-01-28T07:35:01.506Z,9
2023-01-28T07:36:01.850Z,9
2023-01-28T07:37:02.075Z,9
2023-01-28T07:38:01.891Z,9
2023-01-28T07:39:01.697Z,9
2023-01-28T07:40:01.760Z,9
2023-01-28T07:41:02.218Z,9
2023-01-28T07:42:01.715Z,9
2023-01-28T07:43:01.575Z,9
2023-01-28T07:44:01.788Z,9
2023-01-28T07:45:01.393Z,9
2023-01-28T07:46:01.272Z,10
2023-01-28T07:47:01.819Z,9
2023-01-28T07:48:01.996Z,9
2023-01-28T07:49:01.792Z,9
2023-01-28T07:50:01.590Z,9
2023-01-28T07:51:01.344Z,9
2023-01-28T07:52:01.807Z,9
2023-01-28T07:53:01.594Z,9
2023-01-28T07:54:01.360Z,9
2023-01-28T07:55:01.827Z,9
2023-01-28T07:56:01.585Z,9
2023-01-28T07:57:02.352Z,10
2023-01-28T07:58:02.144Z,9
2023-01-28T07:59:01.911Z,10
2023-01-28T08:00:02.399Z,9
2023-01-28T08:01:02.357Z,9
2023-01-28T08:02:03.227Z,10
2023-01-28T08:03:03.705Z,9
2023-01-28T08:04:03.469Z,9
2023-01-28T08:05:03.532Z,9
2023-01-28T08:06:03.474Z,9
2023-01-28T08:07:03.011Z,9
2023-01-28T08:08:03.119Z,9
2023-01-28T08:09:02.946Z,9
2023-01-28T08:10:02.646Z,9
2023-01-28T08:11:02.788Z,9
2023-01-28T08:12:02.761Z,9
2023-01-28T08:13:02.300Z,9
2023-01-28T08:14:02.810Z,9
2023-01-28T08:15:02.659Z,9
2023-01-28T08:16:02.821Z,9
2023-01-28T08:17:02.784Z,10
2023-01-28T08:18:02.522Z,10
2023-01-28T08:19:02.399Z,9
2023-01-28T08:20:02.860Z,10
2023-01-28T08:21:02.364Z,10
2023-01-28T08:22:03.070Z,10
2023-01-28T08:23:02.688Z,10
2023-01-28T08:24:02.960Z,10
2023-01-28T08:25:02.606Z,10
2023-01-28T08:26:02.462Z,10
2023-01-28T08:27:03.028Z,10
2023-01-28T08:28:02.874Z,10
2023-01-28T08:29:02.734Z,10
2023-01-28T08:30:02.846Z,10
2023-01-28T08:31:02.995Z,10
2023-01-28T08:32:02.960Z,10
2023-01-28T08:33:03.240Z,10
2023-01-28T08:34:02.832Z,10
2023-01-28T08:35:03.370Z,10
2023-01-28T08:36:03.276Z,10
2023-01-28T08:37:03.093Z,10
2023-01-28T08:38:02.862Z,10
2023-01-28T08:39:02.729Z,10
2023-01-28T08:40:03.029Z,10
2023-01-28T08:41:02.639Z,10
2023-01-28T08:42:03.212Z,10
2023-01-28T08:43:02.815Z,10
2023-01-28T08:44:02.608Z,10
2023-01-28T08:45:03.161Z,10
2023-01-28T08:46:02.984Z,10
2023-01-28T08:47:02.485Z,10
2023-01-28T08:48:02.175Z,10
2023-01-28T08:49:01.973Z,10
2023-01-28T08:50:02.529Z,11
2023-01-28T08:51:01.882Z,10
2023-01-28T08:52:02.577Z,10
2023-01-28T08:53:02.487Z,11
2023-01-28T08:54:02.420Z,10
2023-01-28T08:55:02.034Z,10
2023-01-28T08:56:02.579Z,11
2023-01-28T08:57:02.732Z,11
2023-01-28T08:58:02.142Z,10
2023-01-28T08:59:02.479Z,10
2023-01-28T09:00:02.272Z,11
2023-01-28T09:01:02.609Z,10
2023-01-28T09:02:03.204Z,11
2023-01-28T09:03:05.758Z,10
2023-01-28T09:04:03.100Z,11
2023-01-28T09:05:03.207Z,11
2023-01-28T09:06:03.128Z,11
2023-01-28T09:07:02.205Z,11
2023-01-28T09:08:02.747Z,11
2023-01-28T09:09:02.556Z,11
2023-01-28T09:10:02.429Z,11
2023-01-28T09:11:02.273Z,11
2023-01-28T09:12:03.364Z,11
2023-01-28T09:13:02.997Z,11
2023-01-28T09:14:02.823Z,11
2023-01-28T09:15:03.299Z,11
2023-01-28T09:16:03.000Z,11
2023-01-28T09:17:02.824Z,12
2023-01-28T09:18:03.386Z,11
2023-01-28T09:19:02.987Z,11
2023-01-28T09:20:03.312Z,12
2023-01-28T09:21:03.305Z,12
2023-01-28T09:22:02.070Z,11
2023-01-28T09:23:02.603Z,12
2023-01-28T09:24:02.107Z,11
2023-01-28T09:25:02.286Z,11
2023-01-28T09:26:02.063Z,11
2023-01-28T09:27:02.715Z,12
2023-01-28T09:28:03.305Z,12
2023-01-28T09:29:02.808Z,12
2023-01-28T09:30:02.792Z,11
2023-01-28T09:31:03.279Z,11
2023-01-28T09:32:02.127Z,11
2023-01-28T09:33:02.658Z,10
2023-01-28T09:34:02.022Z,11
2023-01-28T09:35:02.359Z,11
2023-01-28T09:36:02.140Z,11
2023-01-28T09:37:02.638Z,11
2023-01-28T09:38:03.197Z,10
2023-01-28T09:39:03.295Z,10
2023-01-28T09:40:03.037Z,10
2023-01-28T09:41:02.787Z,10
2023-01-28T09:42:02.337Z,10
2023-01-28T09:43:02.708Z,10
2023-01-28T09:44:02.152Z,10
2023-01-28T09:45:02.350Z,10
2023-01-28T09:46:02.689Z,9
2023-01-28T09:47:02.575Z,10
2023-01-28T09:48:02.409Z,9
2023-01-28T09:49:02.383Z,10
2023-01-28T09:50:02.852Z,10
2023-01-28T09:51:02.764Z,9
2023-01-28T09:52:02.763Z,10
2023-01-28T09:53:02.853Z,9
2023-01-28T09:54:02.725Z,10
2023-01-28T09:55:02.863Z,9
2023-01-28T09:56:02.779Z,9
2023-01-28T09:57:02.322Z,9
2023-01-28T09:58:02.157Z,9
2023-01-28T09:59:02.642Z,9
2023-01-28T10:00:02.598Z,9
2023-01-28T10:01:02.303Z,9
2023-01-28T10:02:03.906Z,8
2023-01-28T10:03:03.530Z,9
2023-01-28T10:04:03.404Z,9
2023-01-28T10:05:03.287Z,9
2023-01-28T10:06:03.862Z,8
2023-01-28T10:07:03.084Z,9
2023-01-28T10:08:03.384Z,8
2023-01-28T10:09:02.991Z,9
2023-01-28T10:10:03.449Z,8
2023-01-28T10:11:03.073Z,8
2023-01-28T10:12:02.650Z,8
2023-01-28T10:13:02.546Z,8
2023-01-28T10:14:02.669Z,8
2023-01-28T10:15:02.357Z,7
2023-01-28T10:16:02.741Z,8
2023-01-28T10:17:02.718Z,7
2023-01-28T10:18:15.944Z,8
2023-01-28T10:19:03.010Z,8
2023-01-28T10:20:02.957Z,7
2023-01-28T10:21:02.725Z,7
2023-01-28T10:22:03.223Z,7
2023-01-28T10:23:03.270Z,7
2023-01-28T10:24:03.024Z,7
2023-01-28T10:25:03.280Z,7
2023-01-28T10:26:02.964Z,7
2023-01-28T10:27:02.564Z,6
2023-01-28T10:28:02.472Z,7
2023-01-28T10:29:02.324Z,6
2023-01-28T10:30:02.199Z,7
2023-01-28T10:31:02.743Z,7
2023-01-28T10:32:03.086Z,6
2023-01-28T10:33:03.120Z,7
2023-01-28T10:34:02.986Z,6
2023-01-28T10:35:02.787Z,7
2023-01-28T10:36:02.856Z,6
2023-01-28T10:37:03.140Z,6
2023-01-28T10:38:02.882Z,7
2023-01-28T10:39:03.116Z,6
2023-01-28T10:40:02.829Z,6
2023-01-28T10:41:03.313Z,6
2023-01-28T10:42:02.712Z,6
2023-01-28T10:43:02.492Z,6
2023-01-28T10:44:02.860Z,6
2023-01-28T10:45:02.684Z,6
2023-01-28T10:46:02.495Z,6
2023-01-28T10:47:02.877Z,6
2023-01-28T10:48:02.510Z,5
2023-01-28T10:49:02.688Z,6
2023-01-28T10:50:02.532Z,5
2023-01-28T10:51:03.253Z,6
2023-01-28T10:52:02.909Z,5
2023-01-28T10:53:02.714Z,5
2023-01-28T10:54:02.566Z,5
2023-01-28T10:55:03.032Z,5
2023-01-28T10:56:02.819Z,5
2023-01-28T10:57:02.940Z,5
2023-01-28T10:58:02.564Z,5
2023-01-28T10:59:03.149Z,5
2023-01-28T11:00:02.606Z,5
2023-01-28T11:01:03.172Z,5
2023-01-28T11:02:02.058Z,4
2023-01-28T11:03:01.553Z,4
2023-01-28T11:04:02.004Z,5
2023-01-28T11:05:01.870Z,5
2023-01-28T11:06:01.707Z,5
2023-01-28T11:07:02.325Z,5
2023-01-28T11:08:01.979Z,5
2023-01-28T11:09:02.034Z,5
2023-01-28T11:10:02.237Z,4
2023-01-28T11:11:02.089Z,5
2023-01-28T11:12:01.826Z,4
2023-01-28T11:13:01.450Z,4
2023-01-28T11:14:01.368Z,5
2023-01-28T11:15:01.864Z,4
2023-01-28T11:16:01.399Z,5
2023-01-28T11:17:01.990Z,5
2023-01-28T11:18:01.920Z,4
2023-01-28T11:19:01.690Z,4
2023-01-28T11:20:01.478Z,4
2023-01-28T11:21:01.909Z,4
2023-01-28T11:22:02.027Z,4
2023-01-28T11:23:01.807Z,4
2023-01-28T11:24:01.686Z,4
2023-01-28T11:25:02.068Z,4
2023-01-28T11:26:02.064Z,4
2023-01-28T11:27:02.486Z,4
2023-01-28T11:28:02.095Z,4
2023-01-28T11:29:01.850Z,5
2023-01-28T11:30:02.042Z,4
2023-01-28T11:31:01.972Z,5
2023-01-28T11:32:01.921Z,4
2023-01-28T11:33:01.621Z,4
2023-01-28T11:34:01.551Z,4
2023-01-28T11:35:01.362Z,5
2023-01-28T11:36:01.808Z,4
2023-01-28T11:37:02.265Z,4
2023-01-28T11:38:01.992Z,4
2023-01-28T11:39:01.810Z,4
2023-01-28T11:40:02.277Z,4
2023-01-28T11:41:02.044Z,4
2023-01-28T11:42:02.525Z,4
2023-01-28T11:43:02.145Z,5
2023-01-28T11:44:01.956Z,4
2023-01-28T11:45:02.523Z,5
2023-01-28T11:46:05.054Z,4
2023-01-28T11:47:02.859Z,4
2023-01-28T11:48:02.365Z,4
2023-01-28T11:49:02.251Z,4
2023-01-28T11:50:02.136Z,4
2023-01-28T11:51:02.681Z,4
2023-01-28T11:52:02.029Z,4
2023-01-28T11:53:07.029Z,4
2023-01-28T11:54:02.056Z,4
2023-01-28T11:55:01.974Z,4
2023-01-28T11:56:01.579Z,4
2023-01-28T11:57:02.619Z,4
2023-01-28T11:58:02.259Z,4
2023-01-28T11:59:02.133Z,4
2023-01-28T12:00:02.941Z,4
2023-01-28T12:01:02.339Z,4
2023-01-28T12:02:02.654Z,4
2023-01-28T12:03:02.159Z,4
2023-01-28T12:04:02.541Z,4
2023-01-28T12:05:02.403Z,4
2023-01-28T12:06:02.296Z,4
2023-01-28T12:07:02.818Z,4
2023-01-28T12:08:02.440Z,4
2023-01-28T12:09:02.465Z,4
2023-01-28T12:10:02.550Z,4
2023-01-28T12:11:02.332Z,3
2023-01-28T12:12:04.936Z,3
2023-01-28T12:13:02.852Z,3
2023-01-28T12:14:02.326Z,3
2023-01-28T12:15:02.750Z,4
2023-01-28T12:16:02.684Z,3
2023-01-28T12:17:01.877Z,3
2023-01-28T12:18:02.375Z,3
2023-01-28T12:19:02.222Z,3
2023-01-28T12:20:02.278Z,4
2023-01-28T12:21:02.041Z,3
2023-01-28T12:22:01.903Z,3
2023-01-28T12:23:02.133Z,3
2023-01-28T12:24:02.014Z,4
2023-01-28T12:25:02.457Z,4
2023-01-28T12:26:02.088Z,3
2023-01-28T12:27:02.476Z,4
2023-01-28T12:28:02.570Z,3
2023-01-28T12:29:02.750Z,4
2023-01-28T12:30:03.142Z,3
2023-01-28T12:31:02.876Z,4
2023-01-28T12:32:02.771Z,3
2023-01-28T12:33:02.227Z,3
2023-01-28T12:34:02.287Z,3
2023-01-28T12:35:01.874Z,3
2023-01-28T12:36:02.207Z,3
2023-01-28T12:37:02.073Z,4
2023-01-28T12:38:02.634Z,3
2023-01-28T12:39:02.303Z,3
2023-01-28T12:40:02.834Z,3
2023-01-28T12:41:02.398Z,3
2023-01-28T12:42:02.738Z,3
2023-01-28T12:43:02.199Z,3
2023-01-28T12:44:02.070Z,3
2023-01-28T12:45:02.514Z,3
2023-01-28T12:46:02.106Z,3
2023-01-28T12:47:04.168Z,3
2023-01-28T12:48:02.983Z,3
2023-01-28T12:49:02.585Z,3
2023-01-28T12:50:02.305Z,3
2023-01-28T12:51:02.291Z,3
2023-01-28T12:52:02.563Z,3
2023-01-28T12:53:02.138Z,3
2023-01-28T12:54:02.188Z,3
2023-01-28T12:55:01.927Z,3
2023-01-28T12:56:01.962Z,3
2023-01-28T12:57:02.468Z,3
2023-01-28T12:58:02.418Z,3
2023-01-28T12:59:02.194Z,3
2023-01-28T13:00:02.753Z,3
2023-01-28T13:01:02.277Z,3
2023-01-28T13:02:02.699Z,3
2023-01-28T13:03:02.227Z,3
2023-01-28T13:04:02.448Z,3
2023-01-28T13:05:02.298Z,3
2023-01-28T13:06:02.781Z,3
2023-01-28T13:07:02.705Z,2
2023-01-28T13:08:02.080Z,2
2023-01-28T13:09:02.662Z,3
2023-01-28T13:10:02.211Z,3
2023-01-28T13:11:02.241Z,2
2023-01-28T13:12:02.715Z,3
2023-01-28T13:13:02.178Z,2
2023-01-28T13:14:02.539Z,2
2023-01-28T13:15:02.250Z,2
2023-01-28T13:16:02.816Z,3
2023-01-28T13:17:02.450Z,3
2023-01-28T13:18:02.642Z,3
2023-01-28T13:19:02.513Z,3
2023-01-28T13:20:02.678Z,3
2023-01-28T13:21:02.497Z,3
2023-01-28T13:22:02.347Z,2
2023-01-28T13:23:02.182Z,2
2023-01-28T13:24:02.210Z,2
2023-01-28T13:25:02.034Z,2
2023-01-28T13:26:01.770Z,2
2023-01-28T13:27:02.085Z,2
2023-01-28T13:28:02.285Z,3
2023-01-28T13:29:01.793Z,2
2023-01-28T13:30:01.645Z,3
2023-01-28T13:31:02.084Z,2
2023-01-28T13:32:01.816Z,2
2023-01-28T13:33:02.322Z,3
2023-01-28T13:34:02.163Z,2
2023-01-28T13:35:02.543Z,3
2023-01-28T13:36:02.098Z,2
2023-01-28T13:37:03.931Z,3
2023-01-28T13:38:01.765Z,2
2023-01-28T13:39:02.099Z,2
2023-01-28T13:40:02.005Z,2
2023-01-28T13:41:01.765Z,2
2023-01-28T13:42:02.169Z,2
2023-01-28T13:43:01.770Z,2
2023-01-28T13:44:01.908Z,3
2023-01-28T13:45:01.737Z,2
2023-01-28T13:46:02.374Z,2
2023-01-28T13:47:01.790Z,2
2023-01-28T13:48:02.432Z,2
2023-01-28T13:49:02.449Z,2
2023-01-28T13:50:02.142Z,2
2023-01-28T13:51:02.632Z,2
2023-01-28T13:52:02.227Z,2
2023-01-28T13:53:02.067Z,2
2023-01-28T13:54:01.702Z,2
2023-01-28T13:55:01.561Z,2
2023-01-28T13:56:01.691Z,2
2023-01-28T13:57:01.675Z,2
2023-01-28T13:58:02.042Z,2
2023-01-28T13:59:01.833Z,2
2023-01-28T14:00:02.381Z,2
2023-01-28T14:01:02.433Z,2
2023-01-28T14:02:02.023Z,2
2023-01-28T14:03:02.551Z,2
2023-01-28T14:04:02.303Z,2
2023-01-28T14:05:02.246Z,2
2023-01-28T14:06:02.759Z,2
2023-01-28T14:07:02.578Z,2
2023-01-28T14:08:03.196Z,3
2023-01-28T14:09:03.071Z,2
2023-01-28T14:10:02.953Z,2
2023-01-28T14:11:03.236Z,2
2023-01-28T14:12:03.051Z,3
2023-01-28T14:13:02.704Z,2
2023-01-28T14:14:02.583Z,2
2023-01-28T14:15:02.417Z,3
2023-01-28T14:16:02.320Z,2
2023-01-28T14:17:02.298Z,2
2023-01-28T14:18:02.820Z,3
2023-01-28T14:19:02.911Z,2
2023-01-28T14:20:02.724Z,2
2023-01-28T14:21:02.596Z,2
2023-01-28T14:22:02.652Z,2
2023-01-28T14:23:02.893Z,2
2023-01-28T14:24:03.434Z,2
2023-01-28T14:25:03.137Z,2
2023-01-28T14:26:02.781Z,2
2023-01-28T14:27:03.316Z,2
2023-01-28T14:28:02.658Z,3
2023-01-28T14:29:02.358Z,2
2023-01-28T14:30:02.293Z,2
2023-01-28T14:31:02.417Z,2
2023-01-28T14:32:02.370Z,2
2023-01-28T14:33:02.874Z,2
2023-01-28T14:34:02.865Z,2
2023-01-28T14:35:02.714Z,2
2023-01-28T14:36:03.065Z,2
2023-01-28T14:37:02.640Z,2
2023-01-28T14:38:03.100Z,2
2023-01-28T14:39:03.311Z,2
2023-01-28T14:40:02.894Z,2
2023-01-28T14:41:02.717Z,2
2023-01-28T14:42:03.224Z,2
2023-01-28T14:43:02.836Z,2